createdAt,value
2018-04-15T00:00:41.215Z,14.41
2018-04-15T00:03:07.155Z,14.24
2018-04-15T00:05:33.128Z,14.10
2018-04-15T00:07:59.064Z,14.08
2018-04-15T00:10:25.019Z,14.17
2018-04-15T00:12:51.021Z,13.98
2018-04-15T00:15:16.970Z,13.91
2018-04-15T00:17:42.935Z,13.69
2018-04-15T00:20:08.879Z,13.76
2018-04-15T00:22:34.822Z,13.94
2018-04-15T00:25:00.751Z,14.00
2018-04-15T00:27:26.711Z,13.97
2018-04-15T00:29:52.662Z,14.01
2018-04-15T00:32:18.617Z,13.72
2018-04-15T00:34:44.573Z,13.65
2018-04-15T00:37:10.527Z,13.88
2018-04-15T00:39:36.483Z,14.08
2018-04-15T00:42:02.445Z,14.04
2018-04-15T00:44:28.476Z,14.03
2018-04-15T00:46:54.568Z,13.68
2018-04-15T00:49:20.525Z,13.95
2018-04-15T00:51:46.486Z,13.94
2018-04-15T00:54:12.452Z,14.11
2018-04-15T00:56:38.398Z,13.80
2018-04-15T00:59:04.370Z,13.65
2018-04-15T01:01:30.420Z,13.46
2018-04-15T01:03:56.376Z,13.54
2018-04-15T01:06:22.334Z,13.56
2018-04-15T01:08:48.280Z,13.60
2018-04-15T01:11:14.213Z,13.33
2018-04-15T01:13:40.147Z,13.47
2018-04-15T01:16:06.116Z,13.46
2018-04-15T01:18:32.080Z,13.58
2018-04-15T01:20:58.066Z,13.46
2018-04-15T01:23:24.189Z,13.23
2018-04-15T01:25:50.169Z,13.49
2018-04-15T01:28:16.107Z,13.29
2018-04-15T01:30:42.075Z,13.30
2018-04-15T01:33:08.031Z,13.34
2018-04-15T01:35:33.992Z,13.24
2018-04-15T01:37:59.922Z,13.39
2018-04-15T01:40:25.881Z,13.51
2018-04-15T01:42:51.825Z,13.41
2018-04-15T01:45:17.786Z,13.12
2018-04-15T01:47:43.760Z,13.28
2018-04-15T01:50:09.706Z,13.06
2018-04-15T01:52:35.674Z,13.51
2018-04-15T01:55:01.599Z,13.33
2018-04-15T01:57:27.562Z,13.39
2018-04-15T01:59:53.549Z,13.43
2018-04-15T02:02:19.486Z,13.37
2018-04-15T02:04:45.429Z,13.54
2018-04-15T02:07:11.402Z,13.32
2018-04-15T02:09:37.337Z,13.19
2018-04-15T02:12:03.332Z,13.35
2018-04-15T02:14:29.281Z,13.04
2018-04-15T02:16:55.273Z,13.12
2018-04-15T02:19:21.262Z,13.09
2018-04-15T02:21:47.218Z,13.20
2018-04-15T02:24:13.169Z,13.19
2018-04-15T02:26:39.199Z,13.48
2018-04-15T02:29:05.168Z,13.48
2018-04-15T02:31:31.113Z,13.62
2018-04-15T02:33:57.066Z,13.49
2018-04-15T02:36:23.024Z,13.34
2018-04-15T02:38:49.003Z,13.24
2018-04-15T02:41:14.934Z,13.06
2018-04-15T02:43:40.905Z,13.31
2018-04-15T02:46:06.841Z,13.17
2018-04-15T02:48:32.779Z,13.23
2018-04-15T02:50:58.727Z,12.91
2018-04-15T02:53:24.694Z,13.07
2018-04-15T02:55:50.644Z,12.94
2018-04-15T02:58:16.619Z,13.09
2018-04-15T03:00:42.577Z,13.13
2018-04-15T03:03:08.551Z,13.28
2018-04-15T03:05:34.483Z,13.19
2018-04-15T03:08:00.488Z,13.12
2018-04-15T03:10:26.437Z,13.25
2018-04-15T03:12:52.383Z,13.34
2018-04-15T03:15:18.317Z,13.02
2018-04-15T03:17:44.294Z,13.21
2018-04-15T03:20:10.676Z,13.13
2018-04-15T03:22:36.662Z,13.15
2018-04-15T03:25:02.619Z,12.93
2018-04-15T03:27:28.577Z,13.05
2018-04-15T03:29:54.509Z,13.08
2018-04-15T03:32:20.462Z,13.00
2018-04-15T03:34:46.411Z,12.73
2018-04-15T03:37:12.363Z,12.66
2018-04-15T03:39:38.291Z,12.67
2018-04-15T03:42:04.271Z,12.76
2018-04-15T03:44:30.253Z,12.90
2018-04-15T03:46:56.222Z,13.07
2018-04-15T03:49:22.165Z,13.05
2018-04-15T03:51:48.436Z,12.76
2018-04-15T03:54:14.376Z,12.72
2018-04-15T03:56:40.321Z,12.57
2018-04-15T03:59:06.292Z,12.67
2018-04-15T04:01:32.227Z,12.75
2018-04-15T04:03:58.202Z,12.89
2018-04-15T04:06:24.225Z,12.60
2018-04-15T04:08:50.205Z,13.00
2018-04-15T04:11:16.186Z,13.00
2018-04-15T04:13:42.158Z,12.97
2018-04-15T04:16:08.146Z,12.87
2018-04-15T04:18:34.129Z,12.86
2018-04-15T04:21:00.080Z,12.67
2018-04-15T04:23:26.035Z,12.60
2018-04-15T04:25:51.988Z,12.53
2018-04-15T04:28:17.936Z,12.34
2018-04-15T04:30:43.882Z,12.49
2018-04-15T04:33:09.909Z,12.13
2018-04-15T04:35:35.879Z,12.34
2018-04-15T04:38:01.835Z,12.32
2018-04-15T04:40:27.761Z,12.50
2018-04-15T04:42:53.720Z,12.37
2018-04-15T04:45:19.691Z,12.45
2018-04-15T04:47:45.654Z,12.36
2018-04-15T04:50:11.604Z,12.27
2018-04-15T04:52:37.535Z,12.30
2018-04-15T04:55:03.484Z,12.42
2018-04-15T04:57:29.426Z,12.38
2018-04-15T04:59:55.380Z,12.44
2018-04-15T05:02:21.358Z,12.74
2018-04-15T05:04:49.351Z,12.94
2018-04-15T05:07:15.283Z,12.89
2018-04-15T05:09:41.210Z,12.71
2018-04-15T05:12:07.147Z,12.73
2018-04-15T05:14:33.081Z,13.23
2018-04-15T05:17:01.094Z,12.95
2018-04-15T05:21:59.804Z,13.24
2018-04-15T05:24:25.754Z,13.30
2018-04-15T05:26:51.682Z,13.23
2018-04-15T05:29:17.630Z,13.29
2018-04-15T05:31:43.585Z,13.48
2018-04-15T05:34:09.527Z,13.65
2018-04-15T05:36:35.485Z,13.80
2018-04-15T05:39:01.433Z,13.77
2018-04-15T05:41:27.394Z,13.62
2018-04-15T05:43:53.378Z,13.69
2018-04-15T05:46:19.337Z,13.83
2018-04-15T05:48:45.328Z,14.03
2018-04-15T05:51:11.304Z,14.34
2018-04-15T05:53:37.274Z,14.37
2018-04-15T05:56:03.547Z,14.71
2018-04-15T05:58:29.716Z,15.00
2018-04-15T06:00:55.731Z,15.42
2018-04-15T06:03:21.696Z,15.61
2018-04-15T06:05:47.642Z,15.91
2018-04-15T06:08:13.632Z,16.09
2018-04-15T06:10:40.032Z,16.27
2018-04-15T06:13:06.038Z,15.78
2018-04-15T06:15:32.099Z,15.87
2018-04-15T06:17:58.135Z,15.83
2018-04-15T06:20:24.204Z,15.96
2018-04-15T06:22:50.185Z,15.94
2018-04-15T06:25:16.251Z,15.94
2018-04-15T06:27:42.293Z,15.88
2018-04-15T06:30:08.297Z,15.89
2018-04-15T06:32:34.279Z,15.84
2018-04-15T06:35:00.758Z,15.95
2018-04-15T06:37:26.808Z,16.04
2018-04-15T06:39:52.765Z,16.10
2018-04-15T06:42:18.763Z,16.31
2018-04-15T06:44:44.781Z,16.26
2018-04-15T06:47:10.774Z,16.10
2018-04-15T06:49:36.811Z,16.23
2018-04-15T06:52:02.790Z,16.26
2018-04-15T06:54:28.747Z,16.36
2018-04-15T06:56:54.711Z,16.28
2018-04-15T06:59:25.689Z,16.50
2018-04-15T07:01:51.665Z,16.36
2018-04-15T07:04:17.647Z,16.32
2018-04-15T07:06:43.626Z,16.38
2018-04-15T07:09:09.603Z,16.57
2018-04-15T07:11:35.601Z,16.92
2018-04-15T07:14:01.617Z,17.16
2018-04-15T07:16:27.647Z,17.31
2018-04-15T07:18:53.615Z,17.95
2018-04-15T07:21:19.570Z,18.34
2018-04-15T07:23:45.532Z,18.57
2018-04-15T07:26:11.553Z,18.27
2018-04-15T07:28:37.617Z,18.77
2018-04-15T07:31:03.679Z,19.24
2018-04-15T07:33:29.692Z,19.24
2018-04-15T07:35:55.741Z,19.35
2018-04-15T07:38:21.876Z,19.12
2018-04-15T07:40:47.877Z,19.59
2018-04-15T07:43:13.857Z,19.80
2018-04-15T07:45:39.814Z,19.74
2018-04-15T07:48:05.879Z,19.43
2018-04-15T07:50:31.901Z,19.44
2018-04-15T07:52:57.986Z,19.58
2018-04-15T07:55:23.960Z,19.80
2018-04-15T07:57:49.962Z,20.09
2018-04-15T08:00:15.975Z,20.17
2018-04-15T08:02:41.967Z,20.37
2018-04-15T08:05:07.937Z,20.01
2018-04-15T08:07:33.991Z,19.66
2018-04-15T08:10:00.397Z,19.56
2018-04-15T08:12:26.360Z,19.37
2018-04-15T08:14:52.472Z,19.38
2018-04-15T08:17:18.469Z,19.46
2018-04-15T08:19:44.555Z,19.33
2018-04-15T08:22:10.582Z,19.06
2018-04-15T08:24:36.642Z,19.02
2018-04-15T08:27:02.708Z,19.15
2018-04-15T08:29:29.161Z,18.90
2018-04-15T08:31:55.192Z,18.67
2018-04-15T08:34:21.173Z,18.54
2018-04-15T08:36:47.649Z,18.65
2018-04-15T08:39:13.623Z,18.53
2018-04-15T08:41:39.656Z,18.60
2018-04-15T08:44:05.605Z,18.55
2018-04-15T08:46:31.575Z,18.52
2018-04-15T08:48:57.551Z,18.46
2018-04-15T08:51:23.481Z,18.35
2018-04-15T08:53:49.456Z,18.44
2018-04-15T08:56:15.578Z,18.39
2018-04-15T08:58:41.625Z,18.40
2018-04-15T09:01:07.609Z,18.59
2018-04-15T09:03:33.557Z,18.65
2018-04-15T09:05:59.518Z,18.71
2018-04-15T09:08:25.489Z,18.67
2018-04-15T09:10:51.565Z,18.84
2018-04-15T09:13:17.545Z,18.77
2018-04-15T09:15:43.538Z,18.90
2018-04-15T09:18:09.558Z,18.73
2018-04-15T09:20:35.526Z,18.72
2018-04-15T09:23:01.533Z,18.84
2018-04-15T09:25:27.515Z,18.82
2018-04-15T09:27:53.490Z,18.85
2018-04-15T09:30:19.534Z,18.86
2018-04-15T09:32:45.498Z,18.87
2018-04-15T09:35:11.463Z,18.90
2018-04-15T09:37:37.475Z,18.96
2018-04-15T09:40:03.482Z,18.95
2018-04-15T09:42:29.458Z,19.02
2018-04-15T09:44:55.434Z,19.02
2018-04-15T09:47:21.449Z,18.94
2018-04-15T09:49:47.491Z,19.12
2018-04-15T09:52:13.529Z,19.03
2018-04-15T09:54:39.508Z,18.99
2018-04-15T09:57:05.557Z,18.99
2018-04-15T09:59:31.650Z,18.95
2018-04-15T10:01:57.649Z,19.00
2018-04-15T10:04:23.626Z,18.93
2018-04-15T10:06:49.565Z,19.04
2018-04-15T10:09:15.525Z,19.01
2018-04-15T10:11:41.495Z,19.03
2018-04-15T10:14:07.469Z,19.10
2018-04-15T10:16:33.470Z,19.05
2018-04-15T10:18:59.425Z,19.17
2018-04-15T10:21:25.430Z,19.08
2018-04-15T10:23:51.366Z,19.09
2018-04-15T10:26:17.389Z,19.11
2018-04-15T10:28:43.400Z,19.16
2018-04-15T10:31:09.370Z,19.21
2018-04-15T10:33:35.331Z,19.27
2018-04-15T10:36:01.325Z,19.24
2018-04-15T10:38:27.280Z,19.24
2018-04-15T10:40:53.261Z,19.25
2018-04-15T10:43:19.276Z,19.22
2018-04-15T10:45:45.264Z,19.35
2018-04-15T10:48:11.598Z,19.43
2018-04-15T10:50:37.532Z,19.41
2018-04-15T10:53:03.459Z,19.43
2018-04-15T10:55:29.498Z,19.49
2018-04-15T10:57:55.521Z,19.50
2018-04-15T11:00:21.516Z,19.55
2018-04-15T11:02:47.463Z,19.53
2018-04-15T11:05:13.418Z,19.59
2018-04-15T11:07:39.376Z,19.66
2018-04-15T11:10:05.309Z,19.56
2018-04-15T11:12:31.279Z,19.58
2018-04-15T11:14:57.265Z,19.63
2018-04-15T11:17:23.202Z,19.61
2018-04-15T11:19:49.188Z,19.64
2018-04-15T11:22:15.153Z,19.56
2018-04-15T11:24:41.098Z,19.50
2018-04-15T11:27:07.038Z,19.42
2018-04-15T11:29:33.027Z,19.56
2018-04-15T11:31:59.038Z,19.54
2018-04-15T11:34:24.998Z,19.56
2018-04-15T11:36:51.025Z,19.51
2018-04-15T11:39:17.017Z,19.47
2018-04-15T11:41:42.997Z,19.42
2018-04-15T11:44:08.929Z,19.47
2018-04-15T11:46:34.874Z,19.48
2018-04-15T11:49:01.161Z,19.50
2018-04-15T11:51:27.858Z,19.46
2018-04-15T11:53:54.135Z,19.49
2018-04-15T11:56:20.113Z,19.60
2018-04-15T11:58:46.305Z,19.56
2018-04-15T12:01:12.577Z,19.55
2018-04-15T12:03:38.545Z,19.53
2018-04-15T12:06:04.610Z,19.53
2018-04-15T12:08:30.605Z,19.62
2018-04-15T12:10:56.560Z,19.61
2018-04-15T12:13:22.578Z,19.61
2018-04-15T12:15:48.551Z,19.61
2018-04-15T12:18:14.528Z,19.65
2018-04-15T12:20:40.480Z,19.66
2018-04-15T12:23:06.438Z,19.56
2018-04-15T12:25:32.537Z,19.59
2018-04-15T12:27:58.538Z,19.65
2018-04-15T12:30:24.475Z,19.66
2018-04-15T12:32:50.447Z,19.63
2018-04-15T12:35:16.378Z,19.77
2018-04-15T12:37:42.399Z,19.60
2018-04-15T12:40:08.357Z,19.61
2018-04-15T12:42:34.379Z,19.76
2018-04-15T12:45:00.358Z,19.73
2018-04-15T12:47:26.380Z,19.77
2018-04-15T12:49:52.410Z,19.71
2018-04-15T12:52:18.379Z,19.77
2018-04-15T12:54:44.370Z,19.77
2018-04-15T12:57:10.392Z,19.79
2018-04-15T12:59:36.405Z,19.74
2018-04-15T13:02:02.361Z,19.74
2018-04-15T13:04:28.339Z,19.79
2018-04-15T13:06:56.324Z,19.87
2018-04-15T13:09:22.277Z,19.99
2018-04-15T13:11:48.237Z,19.83
2018-04-15T13:14:14.189Z,19.93
2018-04-15T13:16:40.158Z,20.01
2018-04-15T13:19:06.147Z,20.07
2018-04-15T13:21:32.109Z,20.04
2018-04-15T13:23:58.108Z,20.05
2018-04-15T13:26:24.090Z,19.95
2018-04-15T13:28:50.103Z,20.14
2018-04-15T13:31:16.117Z,20.25
2018-04-15T13:33:42.085Z,20.16
2018-04-15T13:36:08.041Z,20.19
2018-04-15T13:38:34.024Z,20.20
2018-04-15T13:40:59.975Z,20.36
2018-04-15T13:43:25.963Z,20.42
2018-04-15T13:45:51.933Z,20.42
2018-04-15T13:48:17.868Z,20.46
2018-04-15T13:50:43.877Z,20.24
2018-04-15T13:53:09.977Z,20.51
2018-04-15T13:55:35.911Z,20.56
2018-04-15T13:58:01.875Z,20.52
2018-04-15T14:00:27.825Z,20.47
2018-04-15T14:02:53.781Z,20.46
2018-04-15T14:05:19.736Z,20.45
2018-04-15T14:07:45.778Z,20.45
2018-04-15T14:10:11.748Z,20.54
2018-04-15T14:12:37.713Z,20.50
2018-04-15T14:15:03.673Z,20.58
2018-04-15T14:17:33.579Z,20.67
2018-04-15T14:19:59.556Z,20.54
2018-04-15T14:22:25.511Z,20.65
2018-04-15T14:24:53.290Z,20.56
2018-04-15T14:27:19.338Z,20.56
2018-04-15T14:29:45.279Z,20.50
2018-04-15T14:32:11.249Z,20.54
2018-04-15T14:34:37.222Z,20.69
2018-04-15T14:37:03.196Z,20.62
2018-04-15T14:39:29.206Z,20.60
2018-04-15T14:41:55.171Z,20.56
2018-04-15T14:44:21.114Z,20.63
2018-04-15T14:46:47.514Z,20.53
2018-04-15T14:49:14.373Z,20.54
2018-04-15T14:51:40.535Z,20.66
2018-04-15T14:54:06.632Z,20.81
2018-04-15T14:56:32.945Z,20.83
2018-04-15T14:58:59.783Z,20.85
2018-04-15T15:01:26.292Z,20.86
2018-04-15T15:03:52.582Z,20.88
2018-04-15T15:06:19.817Z,20.97
2018-04-15T15:08:46.741Z,21.02
2018-04-15T15:11:15.172Z,21.09
2018-04-15T15:13:45.166Z,21.03
2018-04-15T15:16:12.807Z,20.89
2018-04-15T15:23:53.844Z,20.62
2018-04-15T15:26:20.069Z,20.68
2018-04-15T15:31:19.051Z,20.60
2018-04-15T15:33:46.972Z,20.61
2018-04-15T15:36:12.950Z,20.62
2018-04-15T15:38:40.168Z,20.54
2018-04-15T15:41:08.191Z,20.49
2018-04-15T15:43:34.301Z,20.45
2018-04-15T15:46:01.103Z,20.52
2018-04-15T15:48:27.149Z,20.52
2018-04-15T15:50:53.136Z,20.54
2018-04-15T15:53:19.946Z,20.47
2018-04-15T15:55:45.961Z,20.37
2018-04-15T16:00:47.158Z,20.40
2018-04-15T16:03:13.247Z,20.41
2018-04-15T16:05:39.263Z,20.39
2018-04-15T16:08:05.347Z,20.42
2018-04-15T16:10:31.333Z,20.47
2018-04-15T16:12:57.300Z,20.40
2018-04-15T16:15:23.336Z,20.34
2018-04-15T16:17:50.506Z,20.35
2018-04-15T16:20:16.621Z,20.25
2018-04-15T16:22:43.675Z,20.29
2018-04-15T16:25:10.725Z,20.22
2018-04-15T16:27:36.778Z,20.20
2018-04-15T16:30:02.922Z,20.21
2018-04-15T16:32:28.933Z,20.20
2018-04-15T16:34:54.931Z,20.22
2018-04-15T16:37:21.000Z,20.19
2018-04-15T16:39:47.173Z,20.17
2018-04-15T16:42:18.040Z,20.17
2018-04-15T16:44:44.068Z,20.24
2018-04-15T16:47:11.155Z,20.27
2018-04-15T16:49:37.220Z,20.30
2018-04-15T16:52:03.227Z,20.32
2018-04-15T16:54:29.312Z,20.33
2018-04-15T16:56:55.708Z,20.34
2018-04-15T16:59:23.550Z,20.29
2018-04-15T17:01:49.535Z,20.29
2018-04-15T17:04:16.449Z,20.22
2018-04-15T17:06:42.549Z,20.20
2018-04-15T17:09:11.868Z,20.23
2018-04-15T17:11:41.295Z,20.16
2018-04-15T17:14:07.355Z,20.14
2018-04-15T17:16:33.442Z,20.16
2018-04-15T17:18:59.526Z,20.15
2018-04-15T17:21:26.722Z,20.12
2018-04-15T17:23:53.598Z,20.08
2018-04-15T17:26:19.633Z,20.08
2018-04-15T17:28:45.810Z,20.07
2018-04-15T17:31:13.620Z,20.07
2018-04-15T17:33:39.706Z,20.04
2018-04-15T17:36:05.777Z,20.04
2018-04-15T17:38:31.858Z,19.96
2018-04-15T17:40:58.048Z,19.92
2018-04-15T17:43:24.011Z,19.89
2018-04-15T17:45:51.203Z,19.99
2018-04-15T17:48:17.362Z,20.03
2018-04-15T17:50:43.486Z,20.04
2018-04-15T17:53:09.545Z,20.04
2018-04-15T17:55:35.591Z,20.04
2018-04-15T17:58:01.639Z,19.88
2018-04-15T18:00:27.655Z,19.83
2018-04-15T18:02:53.668Z,19.66
2018-04-15T18:05:19.694Z,19.75
2018-04-15T18:07:45.682Z,19.76
2018-04-15T18:10:11.731Z,19.76
2018-04-15T18:12:37.753Z,19.74
2018-04-15T18:15:03.953Z,19.60
2018-04-15T18:17:29.973Z,19.55
2018-04-15T18:19:55.994Z,19.62
2018-04-15T18:24:53.474Z,19.57
2018-04-15T18:27:19.422Z,19.56
2018-04-15T18:29:45.487Z,19.41
2018-04-15T18:32:11.444Z,19.41
2018-04-15T18:34:37.463Z,19.44
2018-04-15T18:37:03.543Z,19.32
2018-04-15T18:39:29.729Z,19.18
2018-04-15T18:41:55.717Z,19.02
2018-04-15T18:44:21.789Z,18.96
2018-04-15T18:46:47.893Z,19.14
2018-04-15T18:49:13.991Z,19.20
2018-04-15T18:51:40.078Z,19.11
2018-04-15T18:54:06.166Z,18.86
2018-04-15T18:56:32.679Z,18.69
2018-04-15T18:58:58.749Z,18.83
2018-04-15T19:01:24.795Z,18.90
2018-04-15T19:03:50.821Z,18.89
2018-04-15T19:06:16.863Z,18.48
2018-04-15T19:08:43.066Z,18.54
2018-04-15T19:11:09.220Z,18.46
2018-04-15T19:13:35.474Z,18.43
2018-04-15T19:16:01.569Z,18.59
2018-04-15T19:18:27.687Z,18.56
2018-04-15T19:20:53.818Z,18.14
2018-04-15T19:25:52.830Z,18.65
2018-04-15T19:28:18.930Z,18.60
2018-04-15T19:30:45.056Z,18.47
2018-04-15T19:33:12.133Z,18.54
2018-04-15T19:35:41.985Z,18.50
2018-04-15T19:38:08.069Z,18.05
2018-04-15T19:40:34.169Z,18.08
2018-04-15T19:43:00.375Z,18.07
2018-04-15T19:45:26.389Z,18.06
2018-04-15T19:47:52.657Z,17.97
2018-04-15T19:50:18.738Z,17.79
2018-04-15T19:52:44.886Z,17.69
2018-04-15T19:55:11.088Z,18.00
2018-04-15T19:57:37.208Z,17.88
2018-04-15T20:00:03.411Z,17.67
2018-04-15T20:02:30.368Z,17.94
2018-04-15T20:04:56.427Z,17.76
2018-04-15T20:07:22.441Z,17.77
2018-04-15T20:09:50.599Z,17.52
2018-04-15T20:12:16.802Z,17.79
2018-04-15T20:14:42.919Z,17.92
2018-04-15T20:17:09.934Z,17.84
2018-04-15T20:19:36.082Z,17.48
2018-04-15T20:22:02.245Z,17.73
2018-04-15T20:24:28.496Z,17.59
2018-04-15T20:26:54.726Z,17.22
2018-04-15T20:29:20.793Z,17.38
2018-04-15T20:31:46.883Z,17.46
2018-04-15T20:34:12.919Z,17.32
2018-04-15T20:36:38.984Z,17.49
2018-04-15T20:39:05.112Z,17.41
2018-04-15T20:41:31.219Z,17.18
2018-04-15T20:43:57.208Z,17.24
2018-04-15T20:46:23.209Z,17.22
2018-04-15T20:48:49.206Z,17.61
2018-04-15T20:51:15.204Z,17.67
2018-04-15T20:53:41.278Z,17.46
2018-04-15T20:56:07.326Z,17.37
2018-04-15T20:58:33.343Z,17.56
2018-04-15T21:00:59.397Z,17.60
2018-04-15T21:03:25.490Z,17.63
2018-04-15T21:05:51.709Z,17.64
2018-04-15T21:08:17.710Z,17.60
2018-04-15T21:10:44.076Z,17.40
2018-04-15T21:13:10.182Z,17.26
2018-04-15T21:15:36.531Z,17.22
2018-04-15T21:18:02.645Z,17.31
2018-04-15T21:20:28.670Z,17.50
2018-04-15T21:22:54.686Z,17.54
2018-04-15T21:25:20.776Z,17.32
2018-04-15T21:27:46.828Z,17.37
2018-04-15T21:30:13.061Z,17.52
2018-04-15T21:32:39.139Z,17.44
2018-04-15T21:35:05.361Z,17.29
2018-04-15T21:37:31.411Z,17.21
2018-04-15T21:39:57.513Z,17.25
2018-04-15T21:42:23.524Z,17.16
2018-04-15T21:44:49.587Z,17.26
2018-04-15T21:47:15.659Z,17.31
2018-04-15T21:49:41.770Z,17.41
2018-04-15T21:52:07.824Z,17.49
2018-04-15T21:54:33.856Z,17.45
2018-04-15T21:56:59.949Z,17.44
2018-04-15T21:59:26.038Z,17.39
2018-04-15T22:01:52.075Z,17.29
2018-04-15T22:04:18.147Z,17.29
2018-04-15T22:06:44.363Z,17.30
2018-04-15T22:09:10.382Z,17.08
2018-04-15T22:11:36.874Z,17.14
2018-04-15T22:14:02.898Z,17.34
2018-04-15T22:16:29.055Z,17.48
2018-04-15T22:18:55.203Z,17.35
2018-04-15T22:21:21.212Z,17.09
2018-04-15T22:23:47.204Z,17.03
2018-04-15T22:26:13.211Z,17.35
2018-04-15T22:28:39.291Z,17.06
2018-04-15T22:31:05.320Z,16.88
2018-04-15T22:33:31.621Z,16.94
2018-04-15T22:35:58.449Z,17.11
2018-04-15T22:38:25.269Z,17.03
2018-04-15T22:40:51.326Z,17.06
2018-04-15T22:43:17.398Z,16.94
2018-04-15T22:45:43.429Z,17.04
2018-04-15T22:48:09.568Z,17.08
2018-04-15T22:50:35.659Z,17.10
2018-04-15T22:53:01.742Z,17.35
2018-04-15T22:55:27.911Z,17.48
2018-04-15T22:57:53.978Z,17.11
2018-04-15T23:00:19.990Z,17.08
2018-04-15T23:02:46.139Z,17.01
2018-04-15T23:05:12.200Z,16.85
2018-04-15T23:07:38.288Z,16.79
2018-04-15T23:10:04.370Z,16.86
2018-04-15T23:12:30.709Z,17.06
2018-04-15T23:14:56.784Z,17.32
2018-04-15T23:17:22.921Z,17.44
2018-04-15T23:19:48.963Z,17.35
2018-04-15T23:22:15.194Z,16.92
2018-04-15T23:24:41.324Z,17.06
2018-04-15T23:27:07.370Z,17.31
2018-04-15T23:29:33.428Z,17.10
2018-04-15T23:31:59.504Z,17.01
2018-04-15T23:34:25.616Z,16.99
2018-04-15T23:36:52.579Z,16.62
2018-04-15T23:39:19.438Z,16.75
2018-04-15T23:41:45.521Z,16.61
2018-04-15T23:44:11.635Z,16.59
2018-04-15T23:46:37.651Z,16.77
2018-04-15T23:49:03.739Z,17.08
2018-04-15T23:51:29.800Z,17.27
2018-04-15T23:53:55.813Z,17.21
2018-04-15T23:56:22.893Z,16.87
2018-04-15T23:58:48.909Z,16.98
